createdAt,value
2022-08-09T00:00:00.164Z,9.91
2022-08-09T00:00:52.223Z,9.96
2022-08-09T00:01:54.770Z,10.00
2022-08-09T00:02:51.539Z,10.03
2022-08-09T00:04:06.118Z,10.04
2022-08-09T00:05:03.025Z,10.10
2022-08-09T00:06:18.145Z,10.15
2022-08-09T00:06:52.134Z,10.21
2022-08-09T00:07:54.307Z,10.30
2022-08-09T00:08:51.814Z,10.42
2022-08-09T00:09:51.105Z,10.47
2022-08-09T00:10:51.093Z,10.44
2022-08-09T00:12:03.052Z,10.32
2022-08-09T00:12:52.684Z,10.21
2022-08-09T00:13:51.064Z,10.12
2022-08-09T00:14:51.076Z,10.00
2022-08-09T00:15:59.970Z,9.96
2022-08-09T00:16:52.025Z,9.93
2022-08-09T00:18:10.853Z,9.91
2022-08-09T00:18:52.007Z,9.89
2022-08-09T00:19:50.996Z,9.85
2022-08-09T00:20:51.016Z,9.81
2022-08-09T00:21:56.698Z,9.81
2022-08-09T00:22:51.958Z,9.82
2022-08-09T00:23:56.146Z,9.88
2022-08-09T00:24:51.947Z,9.91
2022-08-09T00:25:51.607Z,9.91
2022-08-09T00:26:50.964Z,9.86
2022-08-09T00:27:50.917Z,9.89
2022-08-09T00:28:52.394Z,9.91
2022-08-09T00:30:24.901Z,9.94
2022-08-09T00:30:51.879Z,9.99
2022-08-09T00:31:59.920Z,10.06
2022-08-09T00:32:51.891Z,10.12
2022-08-09T00:33:51.949Z,10.17
2022-08-09T00:34:52.166Z,10.21
2022-08-09T00:35:50.832Z,10.26
2022-08-09T00:36:50.822Z,10.30
2022-08-09T00:37:50.812Z,10.34
2022-08-09T00:38:51.402Z,10.34
2022-08-09T00:40:12.667Z,10.34
2022-08-09T00:40:52.746Z,10.32
2022-08-09T00:44:13.998Z,10.19
2022-08-09T00:44:15.500Z,10.17
2022-08-09T00:44:16.635Z,10.18
2022-08-09T00:44:51.734Z,10.04
2022-08-09T00:45:54.151Z,9.89
2022-08-09T00:46:55.983Z,9.71
2022-08-09T00:47:51.704Z,9.60
2022-08-09T00:48:50.696Z,9.48
2022-08-09T00:49:54.580Z,9.38
2022-08-09T00:50:52.294Z,9.31
2022-08-09T00:51:56.025Z,9.28
2022-08-09T00:52:51.656Z,9.28
2022-08-09T00:53:52.563Z,9.31
2022-08-09T00:54:50.626Z,9.35
2022-08-09T00:56:05.707Z,9.42
2022-08-09T00:56:51.606Z,9.48
2022-08-09T00:57:50.606Z,9.56
2022-08-09T00:58:51.596Z,9.61
2022-08-09T00:59:52.625Z,9.66
2022-08-09T01:00:50.608Z,9.67
2022-08-09T01:01:50.635Z,9.68
2022-08-09T01:02:50.547Z,9.68
2022-08-09T01:03:50.539Z,9.70
2022-08-09T01:04:50.536Z,9.70
2022-08-09T01:05:53.945Z,9.73
2022-08-09T01:06:54.254Z,9.78
2022-08-09T01:08:00.517Z,9.81
2022-08-09T01:08:51.724Z,9.85
2022-08-09T01:09:50.476Z,9.89
2022-08-09T01:10:51.303Z,9.96
2022-08-09T01:11:53.093Z,10.00
2022-08-09T01:12:51.441Z,10.07
2022-08-09T01:13:59.274Z,10.12
2022-08-09T01:14:52.574Z,10.12
2022-08-09T01:15:51.650Z,10.14
2022-08-09T01:16:50.401Z,10.06
2022-08-09T01:17:50.419Z,9.97
2022-08-09T01:19:02.517Z,9.88
2022-08-09T01:20:01.608Z,9.88
2022-08-09T01:20:51.363Z,9.89
2022-08-09T01:21:50.915Z,9.93
2022-08-09T01:22:52.038Z,9.99
2022-08-09T01:24:03.258Z,10.03
2022-08-09T01:24:52.242Z,10.09
2022-08-09T01:25:51.321Z,10.14
2022-08-09T01:26:53.596Z,10.15
2022-08-09T01:27:50.767Z,10.15
2022-08-09T01:28:50.276Z,10.15
2022-08-09T01:29:55.775Z,10.18
2022-08-09T01:30:53.148Z,10.21
2022-08-09T01:32:33.595Z,10.24
2022-08-09T01:32:51.238Z,10.25
2022-08-09T01:33:50.228Z,10.30
2022-08-09T01:34:50.205Z,10.32
2022-08-09T01:35:51.931Z,10.33
2022-08-09T01:36:50.215Z,10.37
2022-08-09T01:38:08.375Z,10.39
2022-08-09T01:38:51.171Z,10.37
2022-08-09T01:39:50.226Z,10.33
2022-08-09T01:40:52.704Z,10.32
2022-08-09T01:41:53.569Z,10.28
2022-08-09T01:42:51.128Z,10.30
2022-08-09T01:43:52.412Z,10.33
2022-08-09T01:44:50.108Z,10.37
2022-08-09T01:45:50.099Z,10.40
2022-08-09T01:46:50.090Z,10.44
2022-08-09T01:47:50.106Z,10.46
2022-08-09T01:48:50.060Z,10.51
2022-08-09T01:49:51.050Z,10.52
2022-08-09T01:50:55.163Z,10.47
2022-08-09T01:51:53.398Z,10.37
2022-08-09T01:52:50.717Z,10.25
2022-08-09T01:53:50.059Z,10.18
2022-08-09T01:54:50.001Z,10.01
2022-08-09T01:55:49.990Z,9.89
2022-08-09T01:56:51.402Z,9.79
2022-08-09T01:57:50.810Z,9.76
2022-08-09T01:58:49.961Z,9.75
2022-08-09T01:59:51.476Z,9.67
2022-08-09T02:00:50.510Z,9.57
2022-08-09T02:01:59.103Z,9.45
2022-08-09T02:02:50.913Z,9.30
2022-08-09T02:03:49.907Z,9.24
2022-08-09T02:04:49.904Z,9.15
2022-08-09T02:06:03.653Z,9.12
2022-08-09T02:06:54.386Z,9.06
2022-08-09T02:08:38.991Z,9.05
2022-08-09T02:08:58.944Z,9.05
2022-08-09T02:09:59.599Z,9.10
2022-08-09T02:10:51.789Z,9.18
2022-08-09T02:11:49.826Z,9.25
2022-08-09T02:12:49.816Z,9.32
2022-08-09T02:14:06.755Z,9.38
2022-08-09T02:14:51.784Z,9.34
2022-08-09T02:15:50.600Z,9.32
2022-08-09T02:16:59.812Z,9.31
2022-08-09T02:18:00.057Z,9.30
2022-08-09T02:18:50.748Z,9.25
2022-08-09T02:19:49.749Z,9.27
2022-08-09T02:20:49.736Z,9.27
2022-08-09T02:21:49.719Z,9.25
2022-08-09T02:22:50.758Z,9.21
2022-08-09T02:23:49.709Z,9.16
2022-08-09T02:24:51.737Z,9.13
2022-08-09T02:25:55.611Z,9.09
2022-08-09T02:26:50.670Z,9.04
2022-08-09T02:27:58.336Z,8.97
2022-08-09T02:28:50.681Z,8.94
2022-08-09T02:29:49.640Z,8.93
2022-08-09T02:30:49.629Z,8.94
2022-08-09T02:31:49.621Z,8.96
2022-08-09T02:32:50.938Z,8.91
2022-08-09T02:34:06.243Z,8.93
2022-08-09T02:34:55.960Z,8.94
2022-08-09T02:36:03.804Z,8.94
2022-08-09T02:36:52.584Z,8.91
2022-08-09T02:37:49.503Z,8.86
2022-08-09T02:38:49.492Z,8.83
2022-08-09T02:39:49.975Z,8.84
2022-08-09T02:40:50.555Z,8.84
2022-08-09T02:41:49.514Z,8.81
2022-08-09T02:42:51.093Z,8.76
2022-08-09T02:43:53.803Z,8.75
2022-08-09T02:44:50.442Z,8.76
2022-08-09T02:45:49.428Z,8.81
2022-08-09T02:46:52.212Z,8.88
2022-08-09T02:47:59.254Z,8.94
2022-08-09T02:48:51.085Z,9.01
2022-08-09T02:49:55.369Z,9.09
2022-08-09T02:50:54.346Z,9.18
2022-08-09T02:51:50.393Z,9.24
2022-08-09T02:52:49.348Z,9.28
2022-08-09T02:53:53.125Z,9.34
2022-08-09T02:54:54.537Z,9.39
2022-08-09T02:55:58.543Z,9.43
2022-08-09T02:56:51.602Z,9.50
2022-08-09T02:58:00.476Z,9.57
2022-08-09T02:58:50.297Z,9.61
2022-08-09T03:00:11.425Z,9.66
2022-08-09T03:00:58.581Z,9.68
2022-08-09T03:02:06.177Z,9.73
2022-08-09T03:02:59.996Z,9.78
2022-08-09T03:04:18.165Z,9.78
2022-08-09T03:04:50.802Z,9.81
2022-08-09T03:05:49.217Z,9.81
2022-08-09T03:06:50.214Z,9.82
2022-08-09T03:07:55.143Z,9.83
2022-08-09T03:08:50.231Z,9.81
2022-08-09T03:09:54.461Z,9.81
2022-08-09T03:10:50.822Z,9.81
2022-08-09T03:12:05.519Z,9.81
2022-08-09T03:12:52.216Z,9.76
2022-08-09T03:13:58.346Z,9.71
2022-08-09T03:14:50.174Z,9.76
2022-08-09T03:16:06.703Z,9.79
2022-08-09T03:16:50.111Z,9.81
2022-08-09T03:17:57.803Z,9.86
2022-08-09T03:18:52.976Z,9.89
2022-08-09T03:19:58.790Z,9.93
2022-08-09T03:20:50.102Z,9.94
2022-08-09T03:21:51.010Z,9.96
2022-08-09T03:22:54.632Z,9.93
2022-08-09T03:24:04.378Z,9.89
2022-08-09T03:24:52.582Z,9.89
2022-08-09T03:25:57.994Z,9.88
2022-08-09T03:26:50.044Z,9.91
2022-08-09T03:27:48.995Z,9.91
2022-08-09T03:28:48.984Z,9.96
2022-08-09T03:30:00.673Z,9.94
2022-08-09T03:30:49.965Z,9.97
2022-08-09T03:32:00.032Z,10.00
2022-08-09T03:32:49.985Z,9.99
2022-08-09T03:33:54.588Z,10.03
2022-08-09T03:34:54.075Z,10.06
2022-08-09T03:36:13.510Z,10.09
2022-08-09T03:36:58.512Z,10.12
2022-08-09T03:37:56.026Z,10.17
2022-08-09T03:38:49.917Z,10.17
2022-08-09T03:39:55.567Z,10.17
2022-08-09T03:40:49.858Z,10.17
2022-08-09T03:41:48.879Z,10.17
2022-08-09T03:42:48.847Z,10.14
2022-08-09T03:44:03.675Z,10.09
2022-08-09T03:44:49.860Z,10.00
2022-08-09T03:46:04.252Z,9.91
2022-08-09T03:46:49.809Z,9.86
2022-08-09T03:47:48.790Z,9.83
2022-08-09T03:48:51.712Z,9.85
2022-08-09T03:49:58.085Z,9.83
2022-08-09T03:50:49.802Z,9.86
2022-08-09T03:51:55.844Z,9.88
2022-08-09T03:52:49.741Z,9.91
2022-08-09T03:53:48.731Z,9.94
2022-08-09T03:54:48.721Z,9.99
2022-08-09T03:55:48.710Z,10.04
2022-08-09T03:56:48.742Z,10.10
2022-08-09T03:58:03.150Z,10.17
2022-08-09T03:58:50.222Z,10.21
2022-08-09T03:59:53.458Z,10.24
2022-08-09T04:00:49.724Z,10.26
2022-08-09T04:01:48.656Z,10.30
2022-08-09T04:02:48.674Z,10.32
2022-08-09T04:04:02.282Z,10.26
2022-08-09T04:04:49.613Z,10.25
2022-08-09T04:05:48.612Z,10.26
2022-08-09T04:06:49.172Z,10.28
2022-08-09T04:07:56.585Z,10.34
2022-08-09T04:08:49.614Z,10.37
2022-08-09T04:09:53.019Z,10.39
2022-08-09T04:10:49.815Z,10.42
2022-08-09T04:11:48.546Z,10.46
2022-08-09T04:12:49.736Z,10.52
2022-08-09T04:14:37.763Z,10.55
2022-08-09T04:15:01.039Z,10.55
2022-08-09T04:16:19.633Z,10.52
2022-08-09T04:16:49.496Z,10.56
2022-08-09T04:17:48.487Z,10.58
2022-08-09T04:18:50.926Z,10.60
2022-08-09T04:19:50.985Z,10.63
2022-08-09T04:20:49.515Z,10.66
2022-08-09T04:21:48.438Z,10.71
2022-08-09T04:22:48.428Z,10.76
2022-08-09T04:23:54.123Z,10.80
2022-08-09T04:24:49.408Z,10.81
2022-08-09T04:25:51.755Z,10.77
2022-08-09T04:26:48.430Z,10.74
2022-08-09T04:27:49.337Z,10.70
2022-08-09T04:28:48.370Z,10.66
2022-08-09T04:29:50.090Z,10.66
2022-08-09T04:30:48.351Z,10.70
2022-08-09T04:31:48.345Z,10.74
2022-08-09T04:32:48.362Z,10.81
2022-08-09T04:33:56.637Z,10.91
2022-08-09T04:34:54.409Z,10.98
2022-08-09T04:35:49.293Z,11.03
2022-08-09T04:36:50.294Z,11.07
2022-08-09T04:37:48.272Z,11.11
2022-08-09T04:38:48.321Z,11.14
2022-08-09T04:39:49.369Z,11.19
2022-08-09T04:40:48.269Z,11.21
2022-08-09T04:41:49.238Z,11.28
2022-08-09T04:42:48.611Z,11.32
2022-08-09T04:44:05.001Z,11.38
2022-08-09T04:44:49.593Z,11.44
2022-08-09T04:45:53.501Z,11.49
2022-08-09T04:46:59.454Z,11.52
2022-08-09T04:48:00.137Z,11.53
2022-08-09T04:48:57.532Z,11.56
2022-08-09T04:49:53.342Z,11.59
2022-08-09T04:50:49.905Z,11.62
2022-08-09T04:51:48.126Z,11.65
2022-08-09T04:52:48.125Z,11.72
2022-08-09T04:53:50.107Z,11.78
2022-08-09T04:54:49.099Z,11.83
2022-08-09T04:55:58.020Z,11.90
2022-08-09T04:56:49.118Z,11.96
2022-08-09T04:57:58.887Z,11.99
2022-08-09T04:58:50.789Z,12.04
2022-08-09T04:59:48.049Z,12.08
2022-08-09T05:00:48.039Z,12.11
2022-08-09T05:01:48.021Z,12.08
2022-08-09T05:02:51.863Z,12.02
2022-08-09T05:03:49.018Z,12.02
2022-08-09T05:04:49.002Z,11.99
2022-08-09T05:05:52.643Z,11.97
2022-08-09T05:06:50.554Z,12.01
2022-08-09T05:07:47.960Z,12.04
2022-08-09T05:08:48.990Z,12.04
2022-08-09T05:09:50.034Z,12.08
2022-08-09T05:10:47.941Z,12.15
2022-08-09T05:11:47.924Z,12.21
2022-08-09T05:12:47.913Z,12.29
2022-08-09T05:13:47.904Z,12.33
2022-08-09T05:14:47.923Z,12.42
2022-08-09T05:15:52.383Z,12.49
2022-08-09T05:16:59.038Z,12.59
2022-08-09T05:18:50.310Z,12.63
2022-08-09T05:18:59.328Z,12.70
2022-08-09T05:19:48.873Z,12.77
2022-08-09T05:20:48.834Z,12.82
2022-08-09T05:21:55.246Z,12.88
2022-08-09T05:23:53.882Z,13.02
2022-08-09T05:23:55.201Z,13.12
2022-08-09T05:24:48.794Z,13.22
2022-08-09T05:25:50.857Z,13.32
2022-08-09T05:26:47.906Z,13.40
2022-08-09T05:27:48.045Z,13.46
2022-08-09T05:28:47.754Z,13.52
2022-08-09T05:29:47.737Z,13.54
2022-08-09T05:30:47.988Z,13.56
2022-08-09T05:31:56.222Z,13.54
2022-08-09T05:32:50.816Z,13.47
2022-08-09T05:33:47.699Z,13.49
2022-08-09T05:34:47.690Z,13.54
2022-08-09T05:35:50.820Z,13.58
2022-08-09T05:36:47.673Z,13.63
2022-08-09T05:37:50.101Z,13.67
2022-08-09T05:38:47.650Z,13.61
2022-08-09T05:39:47.724Z,13.59
2022-08-09T05:40:50.610Z,13.58
2022-08-09T05:41:47.611Z,13.65
2022-08-09T05:42:47.601Z,13.65
2022-08-09T05:43:49.088Z,13.69
2022-08-09T05:44:47.737Z,13.76
2022-08-09T05:45:55.884Z,13.83
2022-08-09T05:46:48.563Z,13.94
2022-08-09T05:47:52.469Z,13.95
2022-08-09T05:48:58.460Z,13.95
2022-08-09T05:50:30.508Z,13.94
2022-08-09T05:50:51.369Z,13.96
2022-08-09T05:51:48.504Z,13.99
2022-08-09T05:52:53.501Z,14.07
2022-08-09T05:53:56.684Z,14.17
2022-08-09T05:54:49.225Z,14.27
2022-08-09T05:55:47.475Z,14.37
2022-08-09T05:56:55.049Z,14.47
2022-08-09T05:57:55.742Z,14.62
2022-08-09T05:58:48.437Z,14.74
2022-08-09T05:59:47.427Z,14.93
2022-08-09T06:00:47.458Z,15.05
2022-08-09T06:01:47.412Z,15.11
2022-08-09T06:02:47.465Z,15.27
2022-08-09T06:03:58.429Z,15.38
2022-08-09T06:04:48.369Z,15.52
2022-08-09T06:05:58.043Z,15.67
2022-08-09T06:06:49.758Z,15.84
2022-08-09T06:08:05.010Z,15.96
2022-08-09T06:08:52.703Z,16.06
2022-08-09T06:10:01.393Z,16.20
2022-08-09T06:10:48.319Z,16.27
2022-08-09T06:11:57.127Z,16.34
2022-08-09T06:12:57.777Z,16.42
2022-08-09T06:13:48.280Z,16.50
2022-08-09T06:14:47.270Z,16.59
2022-08-09T06:15:47.262Z,16.70
2022-08-09T06:16:52.073Z,16.78
2022-08-09T06:17:48.243Z,16.86
2022-08-09T06:18:47.265Z,16.93
2022-08-09T06:19:47.226Z,16.98
2022-08-09T06:20:49.920Z,16.99
2022-08-09T06:21:51.335Z,16.93
2022-08-09T06:22:47.185Z,16.89
2022-08-09T06:23:55.700Z,16.93
2022-08-09T06:24:48.195Z,16.98
2022-08-09T06:25:47.157Z,17.07
2022-08-09T06:26:47.145Z,17.17
2022-08-09T06:27:51.741Z,17.26
2022-08-09T06:28:47.158Z,17.33
2022-08-09T06:29:48.114Z,17.43
2022-08-09T06:30:48.138Z,17.51
2022-08-09T06:32:08.665Z,17.62
2022-08-09T06:32:59.558Z,17.73
2022-08-09T06:33:53.027Z,17.82
2022-08-09T06:34:52.635Z,17.88
2022-08-09T06:35:56.784Z,17.92
2022-08-09T06:36:48.089Z,18.00
2022-08-09T06:37:50.720Z,18.09
2022-08-09T06:38:50.203Z,18.15
2022-08-09T06:39:58.130Z,18.21
2022-08-09T06:40:48.060Z,18.03
2022-08-09T06:42:08.200Z,17.69
2022-08-09T06:42:48.021Z,17.62
2022-08-09T06:43:46.978Z,17.69
2022-08-09T06:44:46.962Z,17.79
2022-08-09T06:46:07.379Z,17.88
2022-08-09T06:46:47.934Z,18.02
2022-08-09T06:47:46.931Z,18.10
2022-08-09T06:48:46.952Z,18.22
2022-08-09T06:50:14.549Z,18.28
2022-08-09T06:50:47.898Z,18.42
2022-08-09T06:51:46.885Z,18.55
2022-08-09T06:52:48.486Z,18.72
2022-08-09T06:53:46.877Z,18.72
2022-08-09T06:54:46.896Z,18.77
2022-08-09T06:55:48.452Z,18.91
2022-08-09T06:56:46.847Z,18.91
2022-08-09T06:58:03.429Z,18.97
2022-08-09T07:00:52.719Z,19.21
2022-08-09T07:00:54.931Z,19.13
2022-08-09T07:00:58.642Z,19.33
2022-08-09T07:01:54.726Z,19.48
2022-08-09T07:02:47.825Z,19.63
2022-08-09T07:03:52.408Z,19.72
2022-08-09T07:04:47.750Z,19.84
2022-08-09T07:06:03.072Z,19.75
2022-08-09T07:06:47.732Z,19.84
2022-08-09T07:08:00.721Z,19.93
2022-08-09T07:08:49.747Z,19.98
2022-08-09T07:09:54.955Z,20.10
2022-08-09T07:10:47.722Z,20.24
2022-08-09T07:11:52.142Z,20.34
2022-08-09T07:12:47.717Z,20.51
2022-08-09T07:14:04.880Z,20.64
2022-08-09T07:14:50.925Z,20.58
2022-08-09T07:16:35.356Z,20.61
2022-08-09T07:16:53.517Z,20.66
2022-08-09T07:17:52.642Z,20.83
2022-08-09T07:18:50.030Z,20.95
2022-08-09T07:19:48.200Z,21.01
2022-08-09T07:20:47.783Z,21.01
2022-08-09T07:21:56.034Z,21.02
2022-08-09T07:22:53.249Z,20.93
2022-08-09T07:23:57.818Z,20.68
2022-08-09T07:24:49.293Z,20.64
2022-08-09T07:25:46.539Z,20.77
2022-08-09T07:26:46.537Z,20.90
2022-08-09T07:27:53.221Z,20.83
2022-08-09T07:29:09.288Z,20.90
2022-08-09T07:29:47.489Z,21.06
2022-08-09T07:30:46.481Z,21.27
2022-08-09T07:31:48.184Z,21.50
2022-08-09T07:32:46.462Z,21.67
2022-08-09T07:33:52.708Z,21.88
2022-08-09T07:34:47.470Z,22.06
2022-08-09T07:35:54.089Z,22.17
2022-08-09T07:36:47.481Z,22.07
2022-08-09T07:37:48.098Z,21.67
2022-08-09T07:38:52.581Z,20.99
2022-08-09T07:39:47.427Z,20.89
2022-08-09T07:41:00.909Z,20.72
2022-08-09T07:41:47.365Z,20.89
2022-08-09T07:42:46.356Z,21.14
2022-08-09T07:43:55.747Z,21.38
2022-08-09T07:44:53.337Z,21.46
2022-08-09T07:45:47.355Z,21.66
2022-08-09T07:46:46.316Z,21.91
2022-08-09T07:48:00.863Z,22.12
2022-08-09T07:48:58.911Z,22.28
2022-08-09T07:50:04.517Z,22.41
2022-08-09T07:50:52.957Z,22.60
2022-08-09T07:52:06.260Z,22.57
2022-08-09T07:52:47.249Z,22.71
2022-08-09T07:54:06.463Z,22.74
2022-08-09T07:54:51.585Z,22.84
2022-08-09T07:56:03.456Z,22.80
2022-08-09T07:56:49.726Z,22.84
2022-08-09T07:57:47.167Z,22.96
2022-08-09T07:58:47.288Z,23.14
2022-08-09T08:00:03.073Z,23.15
2022-08-09T08:00:59.057Z,23.29
2022-08-09T08:01:53.303Z,23.50
2022-08-09T08:02:48.018Z,23.32
2022-08-09T08:03:46.144Z,23.46
2022-08-09T08:04:48.946Z,23.52
2022-08-09T08:05:57.280Z,23.65
2022-08-09T08:06:56.000Z,23.61
2022-08-09T08:08:43.035Z,23.31
2022-08-09T08:09:03.529Z,23.38
2022-08-09T08:09:53.320Z,23.58
2022-08-09T08:11:03.205Z,23.72
2022-08-09T08:12:24.019Z,23.82
2022-08-09T08:12:47.091Z,23.89
2022-08-09T08:13:57.264Z,23.85
2022-08-09T08:14:47.060Z,23.82
2022-08-09T08:15:46.021Z,23.95
2022-08-09T08:16:51.219Z,23.94
2022-08-09T08:17:54.914Z,24.10
2022-08-09T08:18:46.980Z,24.23
2022-08-09T08:19:45.973Z,24.23
2022-08-09T08:20:45.991Z,24.26
2022-08-09T08:21:52.591Z,24.32
2022-08-09T08:22:48.590Z,24.29
2022-08-09T08:23:56.153Z,24.23
2022-08-09T08:24:49.178Z,24.19
2022-08-09T08:25:48.542Z,24.27
2022-08-09T08:26:55.910Z,24.35
2022-08-09T08:27:46.911Z,24.47
2022-08-09T08:28:45.886Z,24.54
2022-08-09T08:29:48.644Z,24.57
2022-08-09T08:30:47.478Z,24.56
2022-08-09T08:32:03.435Z,24.10
2022-08-09T08:32:53.690Z,23.85
2022-08-09T08:33:53.460Z,23.95
2022-08-09T08:34:46.835Z,24.13
2022-08-09T08:35:58.500Z,24.31
2022-08-09T08:36:46.801Z,24.31
2022-08-09T08:38:04.458Z,24.04
2022-08-09T08:38:46.812Z,24.13
2022-08-09T08:39:45.794Z,24.31
2022-08-09T08:40:49.573Z,24.42
2022-08-09T08:41:51.740Z,24.50
2022-08-09T08:42:47.006Z,24.61
2022-08-09T08:43:45.733Z,24.35
2022-08-09T08:44:46.303Z,24.13
2022-08-09T08:45:53.615Z,23.24
2022-08-09T08:47:02.533Z,22.50
2022-08-09T08:47:46.695Z,22.50
2022-08-09T08:48:51.909Z,22.71
2022-08-09T08:49:49.316Z,23.01
2022-08-09T08:50:49.177Z,23.05
2022-08-09T08:52:00.205Z,23.27
2022-08-09T08:52:58.955Z,23.40
2022-08-09T08:54:04.407Z,23.49
2022-08-09T08:54:46.629Z,23.55
2022-08-09T08:55:45.659Z,23.68
2022-08-09T08:56:45.598Z,23.77
2022-08-09T08:57:56.595Z,23.92
2022-08-09T08:58:46.665Z,24.00
2022-08-09T08:59:47.256Z,23.95
2022-08-09T09:00:45.655Z,24.00
2022-08-09T09:01:52.689Z,24.17
2022-08-09T09:02:49.888Z,24.41
2022-08-09T09:03:45.638Z,24.63
2022-08-09T09:04:52.742Z,24.83
2022-08-09T09:06:03.359Z,24.75
2022-08-09T09:06:46.504Z,24.29
2022-08-09T09:07:45.523Z,23.95
2022-08-09T09:08:45.489Z,23.43
2022-08-09T09:09:59.549Z,22.86
2022-08-09T09:10:46.457Z,22.87
2022-08-09T09:11:45.456Z,22.74
2022-08-09T09:12:45.436Z,22.94
2022-08-09T09:13:55.255Z,23.12
2022-08-09T09:14:46.417Z,23.26
2022-08-09T09:15:49.145Z,23.32
2022-08-09T09:16:45.399Z,23.47
2022-08-09T09:17:49.408Z,23.55
2022-08-09T09:18:54.847Z,23.65
2022-08-09T09:19:46.369Z,23.61
2022-08-09T09:20:45.360Z,23.24
2022-08-09T09:21:46.901Z,23.12
2022-08-09T09:22:45.341Z,23.14
2022-08-09T09:23:49.904Z,23.20
2022-08-09T09:24:46.351Z,23.24
2022-08-09T09:26:03.773Z,23.14
2022-08-09T09:26:46.303Z,23.01
2022-08-09T09:28:06.959Z,22.93
2022-08-09T09:29:03.472Z,22.83
2022-08-09T09:30:10.486Z,22.72
2022-08-09T09:30:47.364Z,22.71
2022-08-09T09:32:04.031Z,22.69
2022-08-09T09:32:46.236Z,22.64
2022-08-09T09:33:45.330Z,22.60
2022-08-09T09:34:45.215Z,22.57
2022-08-09T09:35:53.031Z,22.53
2022-08-09T09:36:52.766Z,22.57
2022-08-09T09:37:46.188Z,22.52
2022-08-09T09:38:45.178Z,22.56
2022-08-09T09:39:54.929Z,22.68
2022-08-09T09:40:46.475Z,22.82
2022-08-09T09:41:49.413Z,22.86
2022-08-09T09:42:46.340Z,22.94
2022-08-09T09:44:12.513Z,23.02
2022-08-09T09:44:46.110Z,22.93
2022-08-09T09:46:52.192Z,22.93
2022-08-09T09:47:56.757Z,23.08
2022-08-09T09:48:46.072Z,22.92
2022-08-09T09:50:06.732Z,22.37
2022-08-09T09:50:50.909Z,22.16
2022-08-09T09:51:51.208Z,22.31
2022-08-09T09:52:53.429Z,22.59
2022-08-09T09:54:00.993Z,22.82
2022-08-09T09:54:48.845Z,23.09
2022-08-09T09:55:46.006Z,23.05
2022-08-09T09:56:53.311Z,23.08
2022-08-09T09:58:02.346Z,23.12
2022-08-09T09:58:45.967Z,23.40
2022-08-09T09:59:45.004Z,23.61
2022-08-09T10:00:54.677Z,23.79
2022-08-09T10:01:47.369Z,23.86
2022-08-09T10:02:44.928Z,24.14
2022-08-09T10:03:57.610Z,24.31
2022-08-09T10:04:45.942Z,24.45
2022-08-09T10:06:03.489Z,24.71
2022-08-09T10:06:46.969Z,24.87
2022-08-09T10:08:10.696Z,24.83
2022-08-09T10:08:55.691Z,24.87
2022-08-09T10:09:45.969Z,24.87
2022-08-09T10:10:44.882Z,24.75
2022-08-09T10:12:00.131Z,24.68
2022-08-09T10:12:49.721Z,24.87
2022-08-09T10:13:45.829Z,25.06
2022-08-09T10:14:48.405Z,25.10
2022-08-09T10:16:08.753Z,25.02
2022-08-09T10:16:58.073Z,24.85
2022-08-09T10:17:56.000Z,24.71
2022-08-09T10:18:51.301Z,24.87
2022-08-09T10:19:46.014Z,24.32
2022-08-09T10:20:45.548Z,24.42
2022-08-09T10:21:44.727Z,24.13
2022-08-09T10:22:45.161Z,23.89
2022-08-09T10:23:44.728Z,23.90
2022-08-09T10:24:44.708Z,24.22
2022-08-09T10:26:06.687Z,24.00
2022-08-09T10:26:46.717Z,23.75
2022-08-09T10:27:55.986Z,24.02
2022-08-09T10:28:48.974Z,24.27
2022-08-09T10:30:57.867Z,24.49
2022-08-09T10:32:13.704Z,24.41
2022-08-09T10:32:45.680Z,24.77
2022-08-09T10:32:54.682Z,24.61
2022-08-09T10:34:09.204Z,24.76
2022-08-09T10:34:45.633Z,24.50
2022-08-09T10:35:44.593Z,24.34
2022-08-09T10:36:45.124Z,24.26
2022-08-09T10:37:44.580Z,23.92
2022-08-09T10:38:57.110Z,23.90
2022-08-09T10:39:49.320Z,23.72
2022-08-09T10:40:50.017Z,23.47
2022-08-09T10:41:45.537Z,23.22
2022-08-09T10:42:45.922Z,23.47
2022-08-09T10:43:47.062Z,23.50
2022-08-09T10:44:45.486Z,23.38
2022-08-09T10:45:58.474Z,23.17
2022-08-09T10:46:55.235Z,23.02
2022-08-09T10:48:16.476Z,22.84
2022-08-09T10:48:45.449Z,22.69
2022-08-09T10:49:51.849Z,22.64
2022-08-09T10:50:45.440Z,22.96
2022-08-09T10:51:44.411Z,22.93
2022-08-09T10:52:44.807Z,22.77
2022-08-09T10:53:46.839Z,22.67
2022-08-09T10:54:45.401Z,22.77
2022-08-09T10:55:55.444Z,23.47
2022-08-09T10:56:45.364Z,24.01
2022-08-09T10:57:44.362Z,24.35
2022-08-09T10:58:44.384Z,24.73
2022-08-09T10:59:57.813Z,24.98
2022-08-09T11:01:11.008Z,25.22
2022-08-09T11:03:11.362Z,25.20
2022-08-09T11:03:15.574Z,25.35
2022-08-09T11:03:49.719Z,25.64
2022-08-09T11:04:56.284Z,25.75
2022-08-09T11:06:00.483Z,25.91
2022-08-09T11:06:45.267Z,26.02
2022-08-09T11:07:57.121Z,26.20
2022-08-09T11:08:47.828Z,26.28
2022-08-09T11:09:47.852Z,26.39
2022-08-09T11:10:47.071Z,26.40
2022-08-09T11:11:51.792Z,26.42
2022-08-09T11:12:45.209Z,26.02
2022-08-09T11:13:51.380Z,26.04
2022-08-09T11:14:45.220Z,25.93
2022-08-09T11:15:50.750Z,25.52
2022-08-09T11:16:47.170Z,25.47
2022-08-09T11:17:44.152Z,25.30
2022-08-09T11:18:45.120Z,25.10
2022-08-09T11:20:11.136Z,25.10
2022-08-09T11:20:45.176Z,24.98
2022-08-09T11:21:44.114Z,24.88
2022-08-09T11:22:45.134Z,24.67
2022-08-09T11:23:47.534Z,24.29
2022-08-09T11:24:45.094Z,24.08
2022-08-09T11:25:47.709Z,23.95
2022-08-09T11:26:47.214Z,23.83
2022-08-09T11:28:05.167Z,23.95
2022-08-09T11:28:55.765Z,24.37
2022-08-09T11:30:06.289Z,24.64
2022-08-09T11:30:47.699Z,24.85
2022-08-09T11:31:49.618Z,24.80
2022-08-09T11:32:45.040Z,24.75
2022-08-09T11:33:43.990Z,24.79
2022-08-09T11:34:43.985Z,24.71
2022-08-09T11:35:49.067Z,24.85
2022-08-09T11:36:44.968Z,24.87
2022-08-09T11:37:43.953Z,25.15
2022-08-09T11:38:44.974Z,25.42
2022-08-09T11:39:43.966Z,25.54
2022-08-09T11:40:43.923Z,25.22
2022-08-09T11:41:43.914Z,25.09
2022-08-09T11:42:43.905Z,25.15
2022-08-09T11:43:43.896Z,24.88
2022-08-09T11:44:43.918Z,24.54
2022-08-09T11:45:43.873Z,24.19
2022-08-09T11:46:43.865Z,24.14
2022-08-09T11:47:43.855Z,24.00
2022-08-09T11:48:43.836Z,23.49
2022-08-09T11:50:53.801Z,23.09
2022-08-09T11:50:55.535Z,23.27
2022-08-09T11:53:03.552Z,23.08
2022-08-09T11:53:20.780Z,23.12
2022-08-09T11:54:01.232Z,23.24
2022-08-09T11:54:44.780Z,23.39
2022-08-09T11:55:52.425Z,23.68
2022-08-09T11:56:48.325Z,23.92
2022-08-09T11:57:59.697Z,24.04
2022-08-09T11:58:48.284Z,23.92
2022-08-09T11:59:44.723Z,23.82
2022-08-09T12:00:44.715Z,23.89
2022-08-09T12:02:16.904Z,24.27
2022-08-09T12:02:44.813Z,24.57
2022-08-09T12:03:57.085Z,24.90
2022-08-09T12:04:44.718Z,25.16
2022-08-09T12:05:47.235Z,25.12
2022-08-09T12:06:53.097Z,24.91
2022-08-09T12:07:44.635Z,24.68
2022-08-09T12:08:43.671Z,24.52
2022-08-09T12:09:50.297Z,24.59
2022-08-09T12:10:44.608Z,24.68
2022-08-09T12:12:02.682Z,24.77
2022-08-09T12:12:44.587Z,25.00
2022-08-09T12:14:07.165Z,25.13
2022-08-09T12:15:07.622Z,25.32
2022-08-09T12:15:50.466Z,25.44
2022-08-09T12:16:44.539Z,25.54
2022-08-09T12:17:47.797Z,25.69
2022-08-09T12:18:44.519Z,25.75
2022-08-09T12:19:44.512Z,25.74
2022-08-09T12:20:43.552Z,25.62
2022-08-09T12:21:48.661Z,25.53
2022-08-09T12:22:44.485Z,25.56
2022-08-09T12:23:56.635Z,25.56
2022-08-09T12:24:44.464Z,25.65
2022-08-09T12:25:49.245Z,25.42
2022-08-09T12:26:44.892Z,25.46
2022-08-09T12:29:13.651Z,25.47
2022-08-09T12:29:14.480Z,25.49
2022-08-09T12:29:54.644Z,25.35
2022-08-09T12:30:44.409Z,25.30
2022-08-09T12:32:03.273Z,25.24
2022-08-09T12:32:44.454Z,25.32
2022-08-09T12:33:58.407Z,25.28
2022-08-09T12:34:44.361Z,25.30
2022-08-09T12:35:43.349Z,25.06
2022-08-09T12:36:43.340Z,25.22
2022-08-09T12:37:49.633Z,25.17
2022-08-09T12:38:44.361Z,25.38
2022-08-09T12:39:43.356Z,25.47
2022-08-09T12:40:43.301Z,25.59
2022-08-09T12:41:43.543Z,25.68
2022-08-09T12:42:43.282Z,25.82
2022-08-09T12:44:05.554Z,25.72
2022-08-09T12:44:51.884Z,25.67
2022-08-09T12:45:44.253Z,25.69
2022-08-09T12:46:44.243Z,25.79
2022-08-09T12:47:50.147Z,25.84
2022-08-09T12:48:44.223Z,25.89
2022-08-09T12:49:50.998Z,25.71
2022-08-09T12:50:44.235Z,25.61
2022-08-09T12:52:00.064Z,25.52
2022-08-09T12:53:07.920Z,25.54
2022-08-09T12:53:44.958Z,25.61
2022-08-09T12:54:44.163Z,25.71
2022-08-09T12:56:14.985Z,25.75
2022-08-09T12:56:51.001Z,25.80
2022-08-09T12:57:46.361Z,25.54